This is the latest recevied weather packets stored in our database for station/object DC1RS. If no packets are shown the sender has not sent any weather packets the latest 10 day(s).
| Time | Temp. | Humidity | Pressure | Rain* | Wind** | Luminosity | Snow |
|---|---|---|---|---|---|---|---|
| 1777908290 | 25.56° C | 35% | 1009.3 hPa | 0 mm | - | 224 W/m² | - |
| 1777906700 | 26.11° C | 33% | 1009.7 hPa | 0 mm | - | 300 W/m² | - |
| 1777905470 | 26.11° C | 36% | 1009.9 hPa | 0 mm | - | 547 W/m² | - |
| 1777903882 | 26.11° C | 37% | 1010.5 hPa | 0 mm | - | 408 W/m² | - |
| 1777902261 | 26.11° C | 38% | 1010.6 hPa | 0 mm | - | 526 W/m² | - |
| 1777901931 | 25.56° C | 37% | 1011 hPa | 0 mm | - | 569 W/m² | - |
| 1777901772 | 25.56° C | 39% | 1010.6 hPa | 0 mm | - | 570 W/m² | - |
| 1777900211 | 26.67° C | 34% | 1011.5 hPa | 0 mm | - | 636 W/m² | - |
| 1777897692 | 26.11° C | 37% | 1011.9 hPa | 0 mm | - | 751 W/m² | - |
| 1777896191 | 26.11° C | 36% | 1012.3 hPa | 0 mm | - | 793 W/m² | - |
| 1777894270 | 25.56° C | 38% | 1012.7 hPa | 0 mm | - | 864 W/m² | - |
| 1777892652 | 24.44° C | 38% | 1013.1 hPa | 0 mm | - | 801 W/m² | - |
| 1777890321 | 23.89° C | 39% | 1013.6 hPa | 0 mm | - | 700 W/m² | - |
| 1777888761 | 23.89° C | 43% | 1013.9 hPa | 0 mm | - | 714 W/m² | - |
| 1777886541 | 22.78° C | 46% | 1014 hPa | 0 mm | - | 527 W/m² | - |
| 1777885011 | 22.22° C | 48% | 1014.3 hPa | 0 mm | - | 634 W/m² | - |
| 1777883090 | 21.11° C | 49% | 1014.7 hPa | 0 mm | - | 639 W/m² | - |
| 1777881531 | 21.11° C | 48% | 1014.6 hPa | 0 mm | - | 559 W/m² | - |
| 1777879011 | 18.89° C | 56% | 1014.8 hPa | 0 mm | - | 221 W/m² | - |
| 1777877451 | 18.89° C | 56% | 1014.6 hPa | 0 mm | - | 239 W/m² | - |
| 1777876147 | 17.22° C | 62% | 1014.2 hPa | 0 mm | - | 174 W/m² | - |
| 1777874441 | 17.22° C | 57% | 1014.1 hPa | 0 mm | - | 240 W/m² | - |
| 1777872821 | 16.11° C | 59% | 1014.2 hPa | 0 mm | - | 82 W/m² | - |
| 1777871750 | 15.56° C | 60% | 1014.2 hPa | 0 mm | - | 79 W/m² | - |
| 1777870131 | 14.44° C | 67% | 1014.1 hPa | 0 mm | - | 40 W/m² | - |
* Rain latest hour (hover to see other rain measurements)
** Current wind speed in m/s (hover to see current wind gust speed)